Time;durP1;ratioP1;P1;durP2;ratioP2;P2;SDS_P1;SDS_P2;PMS_P1;PMS_P2;Temp;Humidity;BMP_temperature;BMP_pressure;BME280_temperature;BME280_humidity;BME280_pressure;Samples;Min_cycle;Max_cycle;Signal;HPM_P1;HPM_P2
2022/01/03 00:00:40;;;;;;;;;;;;;;;1.07;43.33;100419.73;1734999;81;20134;-59
2022/01/03 00:03:09;;;;;;;;;;;;;;;1.19;43.12;100422.16;1737220;80;20169;-66
2022/01/03 00:05:36;;;;;;;;;;;;;;;1.41;42.85;100412.80;1706870;83;20262;-63
2022/01/03 00:08:05;;;;;;;;;;;;;;;1.45;42.59;100409.05;1707311;83;20350;-60
2022/01/03 00:10:33;;;;;;;;;;;;;;;1.37;42.83;100407.08;1691602;83;20093;-61
2022/01/03 00:13:02;;;;;;;;;;;;;;;1.47;42.72;100412.30;1695470;83;20159;-65
2022/01/03 00:15:30;;;;;;;;;;;;;;;1.12;43.23;100404.77;1694433;83;20793;-61
2022/01/03 00:17:57;;;;;;;;;;;;;;;1.26;43.14;100394.73;1698799;83;20148;-64
2022/01/03 00:20:26;;;;;;;;;;;;;;;1.15;43.21;100387.38;1697663;83;20088;-60
2022/01/03 00:23:02;;;;;;;;;;;;;;;1.18;43.54;100383.77;1680841;83;21309;-59
2022/01/03 00:25:28;;;;;;;;;;;;;;;0.78;44.11;100382.16;1698522;83;20242;-63
2022/01/03 00:28:04;;;;;;;;;;;;;;;1.01;44.13;100378.64;1698899;83;20097;-59
2022/01/03 00:30:41;;;;;;;;;;;;;;;1.05;43.93;100381.79;1697551;83;20176;-60
2022/01/03 00:33:05;;;;;;;;;;;;;;;1.33;43.76;100371.48;1694432;83;20506;-65
2022/01/03 00:35:37;;;;;;;;;;;;;;;1.50;43.48;100368.39;1696885;83;22078;-59
2022/01/03 00:38:04;;;;;;;;;;;;;;;1.73;43.37;100367.02;1696245;83;20260;-62
2022/01/03 00:40:33;;;;;;;;;;;;;;;1.74;43.30;100351.94;1697138;84;20383;-61
2022/01/03 00:42:59;;;;;;;;;;;;;;;1.69;43.39;100351.84;1697950;83;20193;-60
2022/01/03 00:45:25;;;;;;;;;;;;;;;1.78;43.49;100348.19;1698402;83;20144;-59
2022/01/03 00:47:52;;;;;;;;;;;;;;;1.75;43.17;100344.60;1697886;83;21160;-63
2022/01/03 00:50:18;;;;;;;;;;;;;;;2.63;42.26;100326.14;1696565;83;20180;-60
2022/01/03 00:52:45;;;;;;;;;;;;;;;2.96;41.56;100331.46;1698774;83;20501;-60
2022/01/03 00:55:12;;;;;;;;;;;;;;;3.08;41.39;100331.69;1698088;83;20161;-64
2022/01/03 00:58:04;;;;;;;;;;;;;;;3.35;40.92;100323.31;1698295;83;20199;-59
2022/01/03 01:00:32;;;;;;;;;;;;;;;2.96;41.04;100315.20;1697917;83;21195;-61
2022/01/03 01:03:12;;;;;;;;;;;;;;;2.80;41.47;100316.48;1702911;83;20132;-61
2022/01/03 01:05:47;;;;;;;;;;;;;;;2.91;41.39;100319.44;1697694;83;20113;-60
2022/01/03 01:08:17;;;;;;;;;;;;;;;2.55;41.77;100310.53;1695180;83;20719;-59
2022/01/03 01:10:44;;;;;;;;;;;;;;;2.57;41.89;100306.05;1697033;83;20153;-59
2022/01/03 01:13:13;;;;;;;;;;;;;;;2.89;41.52;100307.19;1698049;83;21131;-59
2022/01/03 01:15:41;;;;;;;;;;;;;;;3.16;41.13;100303.49;1698178;83;20125;-59
2022/01/03 01:18:08;;;;;;;;;;;;;;;3.31;40.77;100294.09;1697961;83;20120;-64
2022/01/03 01:20:36;;;;;;;;;;;;;;;3.20;40.71;100282.62;1697665;83;20089;-60
2022/01/03 01:23:07;;;;;;;;;;;;;;;3.68;40.09;100277.46;1696181;83;20152;-60
2022/01/03 01:28:10;;;;;;;;;;;;;;;3.31;40.43;100270.91;1698198;83;20135;-60
2022/01/03 01:30:39;;;;;;;;;;;;;;;3.60;40.15;100267.84;1697246;83;20219;-61
2022/01/03 01:33:09;;;;;;;;;;;;;;;3.23;40.63;100274.16;1697779;83;20101;-58
2022/01/03 01:35:47;;;;;;;;;;;;;;;3.52;40.30;100260.44;1697150;83;20108;-61
2022/01/03 01:38:17;;;;;;;;;;;;;;;3.56;40.22;100249.73;1697685;83;21179;-60
2022/01/03 01:40:47;;;;;;;;;;;;;;;3.64;40.12;100248.56;1697938;83;20472;-58
2022/01/03 01:43:17;;;;;;;;;;;;;;;3.53;40.03;100243.56;1697981;83;20153;-66
2022/01/03 01:45:47;;;;;;;;;;;;;;;3.57;40.25;100244.91;1697370;83;20935;-58
2022/01/03 01:48:14;;;;;;;;;;;;;;;3.66;40.18;100236.82;1699025;83;20232;-62
2022/01/03 01:50:41;;;;;;;;;;;;;;;3.87;39.95;100236.66;1694654;83;21099;-61
2022/01/03 01:53:09;;;;;;;;;;;;;;;3.75;40.12;100237.74;1697188;83;20167;-59
2022/01/03 01:55:40;;;;;;;;;;;;;;;3.80;40.24;100229.13;1697281;83;20089;-63
2022/01/03 01:58:29;;;;;;;;;;;;;;;3.71;40.44;100231.24;1696020;83;20208;-59
2022/01/03 02:01:06;;;;;;;;;;;;;;;3.74;40.58;100224.52;1698694;83;20211;-61
2022/01/03 02:03:58;;;;;;;;;;;;;;;3.54;41.01;100214.73;1696287;83;20295;-60
2022/01/03 02:06:40;;;;;;;;;;;;;;;3.51;41.16;100218.39;1692070;83;20116;-62
2022/01/03 02:09:09;;;;;;;;;;;;;;;3.89;40.85;100208.45;1636290;86;20263;-60
2022/01/03 02:11:42;;;;;;;;;;;;;;;3.81;40.85;100205.78;1735327;81;20069;-60
2022/01/03 02:14:10;;;;;;;;;;;;;;;3.94;40.50;100200.33;1734038;81;20432;-64
2022/01/03 02:16:39;;;;;;;;;;;;;;;3.97;40.36;100193.57;1734493;81;20220;-59
2022/01/03 02:19:06;;;;;;;;;;;;;;;4.10;40.05;100188.91;1733315;81;20173;-59
2022/01/03 02:21:33;;;;;;;;;;;;;;;4.33;39.68;100183.37;1735538;81;20164;-59
2022/01/03 02:24:02;;;;;;;;;;;;;;;4.47;39.49;100190.64;1732361;81;20166;-58
2022/01/03 02:26:29;;;;;;;;;;;;;;;4.48;39.58;100181.92;1733436;81;20419;-63
2022/01/03 02:28:56;;;;;;;;;;;;;;;4.24;39.93;100170.84;1733244;81;21121;-61
2022/01/03 02:31:23;;;;;;;;;;;;;;;3.98;40.30;100167.30;1717037;82;20157;-58
2022/01/03 02:33:50;;;;;;;;;;;;;;;4.01;40.59;100165.25;1731847;81;20208;-59
2022/01/03 02:36:17;;;;;;;;;;;;;;;4.19;40.44;100158.86;1740260;81;20730;-61
2022/01/03 02:38:43;;;;;;;;;;;;;;;4.27;40.36;100159.42;1741633;81;20212;-66
2022/01/03 02:41:13;;;;;;;;;;;;;;;4.60;40.00;100145.91;1741104;81;21076;-59
2022/01/03 02:43:41;;;;;;;;;;;;;;;4.59;39.94;100144.28;1741663;81;20109;-59
2022/01/03 02:46:12;;;;;;;;;;;;;;;4.66;39.88;100141.09;1741341;81;20142;-65
2022/01/03 02:48:41;;;;;;;;;;;;;;;4.92;39.50;100134.22;1741305;80;20179;-59
2022/01/03 02:51:11;;;;;;;;;;;;;;;5.04;39.33;100124.01;1741729;81;20211;-60
2022/01/03 02:53:38;;;;;;;;;;;;;;;5.36;38.97;100121.30;1741527;81;21249;-58
2022/01/03 02:56:07;;;;;;;;;;;;;;;5.38;38.92;100116.80;1738623;81;20203;-60
2022/01/03 02:58:33;;;;;;;;;;;;;;;5.46;38.64;100111.67;1740444;81;20557;-63
2022/01/03 03:01:00;;;;;;;;;;;;;;;5.62;38.40;100109.66;1741925;81;20696;-61
2022/01/03 03:03:31;;;;;;;;;;;;;;;5.73;38.28;100113.75;1741121;81;20134;-61
2022/01/03 03:05:59;;;;;;;;;;;;;;;5.39;38.75;100104.69;1749923;80;21121;-61
2022/01/03 03:08:26;;;;;;;;;;;;;;;5.60;38.55;100102.52;1712028;83;20203;-65
2022/01/03 03:10:53;;;;;;;;;;;;;;;5.68;38.39;100101.26;1708184;83;20559;-61
2022/01/03 03:13:20;;;;;;;;;;;;;;;4.94;39.25;100107.78;1709738;83;20531;-60
2022/01/03 03:15:48;;;;;;;;;;;;;;;5.02;39.32;100099.28;1710030;83;20308;-59
2022/01/03 03:18:16;;;;;;;;;;;;;;;4.69;39.43;100096.43;1709610;82;21052;-63
2022/01/03 03:20:44;;;;;;;;;;;;;;;4.31;39.95;100094.95;1709653;83;20267;-63
2022/01/03 03:23:12;;;;;;;;;;;;;;;4.27;40.04;100093.15;1710228;83;21195;-60
2022/01/03 03:25:41;;;;;;;;;;;;;;;4.15;40.24;100076.27;1709723;83;20121;-59
2022/01/03 03:28:11;;;;;;;;;;;;;;;4.03;40.51;100088.55;1710579;83;20112;-65
2022/01/03 03:30:41;;;;;;;;;;;;;;;4.03;40.64;100085.17;1709377;83;20222;-60
2022/01/03 03:33:15;;;;;;;;;;;;;;;3.85;40.87;100083.83;1710087;83;20254;-60
2022/01/03 03:35:43;;;;;;;;;;;;;;;4.45;40.27;100070.42;1710090;83;20562;-60
2022/01/03 03:38:11;;;;;;;;;;;;;;;4.14;40.23;100063.04;1709394;83;21659;-66
2022/01/03 03:40:37;;;;;;;;;;;;;;;3.99;40.93;100067.07;1683561;83;20262;-61
2022/01/03 03:43:03;;;;;;;;;;;;;;;4.02;40.96;100052.12;1708770;82;21142;-59
2022/01/03 03:45:32;;;;;;;;;;;;;;;4.11;40.92;100049.14;1710110;83;20148;-61
2022/01/03 03:47:58;;;;;;;;;;;;;;;4.17;40.77;100052.44;1709655;83;20167;-64
2022/01/03 03:50:25;;;;;;;;;;;;;;;4.23;40.93;100051.83;1709072;83;20227;-61
2022/01/03 03:52:52;;;;;;;;;;;;;;;4.22;40.93;100051.98;1708374;82;20247;-62
2022/01/03 03:55:19;;;;;;;;;;;;;;;4.19;40.98;100049.70;1710164;82;21148;-59
2022/01/03 03:57:45;;;;;;;;;;;;;;;4.20;40.69;100043.56;1708063;83;20128;-58
2022/01/03 04:00:15;;;;;;;;;;;;;;;3.99;41.15;100038.22;1711745;79;20211;-64
2022/01/03 04:02:43;;;;;;;;;;;;;;;4.12;41.17;100029.63;1720310;83;20211;-63
2022/01/03 04:05:11;;;;;;;;;;;;;;;4.34;40.95;100030.16;1722574;83;20255;-61
2022/01/03 04:07:38;;;;;;;;;;;;;;;4.05;41.58;100018.30;1722316;83;21101;-60
2022/01/03 04:10:10;;;;;;;;;;;;;;;4.84;40.58;100008.91;1723121;83;20128;-63
2022/01/03 04:12:38;;;;;;;;;;;;;;;5.43;39.69;100001.31;1722306;83;20539;-59
2022/01/03 04:15:08;;;;;;;;;;;;;;;5.59;39.04;99990.53;1721905;83;20527;-59
2022/01/03 04:17:35;;;;;;;;;;;;;;;5.31;39.17;99985.28;1722179;82;20160;-59
2022/01/03 04:20:07;;;;;;;;;;;;;;;5.42;39.02;99976.41;1723117;83;21082;-64
2022/01/03 04:22:34;;;;;;;;;;;;;;;4.83;39.66;99968.56;1722866;83;20222;-59
2022/01/03 04:25:02;;;;;;;;;;;;;;;5.00;39.59;99958.66;1722426;83;20234;-58
2022/01/03 04:27:29;;;;;;;;;;;;;;;5.12;39.36;99956.13;1721823;83;20250;-60
2022/01/03 04:29:56;;;;;;;;;;;;;;;5.21;39.27;99949.69;1723094;83;20551;-59
2022/01/03 04:32:22;;;;;;;;;;;;;;;5.22;39.39;99942.26;1700680;82;21151;-65
2022/01/03 04:34:49;;;;;;;;;;;;;;;5.15;39.43;99933.51;1723031;83;21308;-58
2022/01/03 04:37:15;;;;;;;;;;;;;;;4.90;39.77;99929.54;1722907;83;20104;-60
2022/01/03 04:39:42;;;;;;;;;;;;;;;4.80;39.95;99920.60;1724848;81;20457;-59
2022/01/03 04:42:09;;;;;;;;;;;;;;;4.43;40.43;99910.55;1723885;83;20135;-61
2022/01/03 04:44:38;;;;;;;;;;;;;;;4.55;40.52;99901.61;1722486;83;21853;-64
2022/01/03 04:47:06;;;;;;;;;;;;;;;4.61;40.52;99885.97;1723499;83;20212;-62
2022/01/03 04:49:34;;;;;;;;;;;;;;;4.17;40.93;99888.63;1722585;83;20100;-60
2022/01/03 04:52:03;;;;;;;;;;;;;;;4.00;41.29;99875.27;1722234;83;20144;-62
2022/01/03 04:54:31;;;;;;;;;;;;;;;3.90;41.36;99877.91;1723210;83;20412;-65
2022/01/03 04:56:59;;;;;;;;;;;;;;;3.87;41.51;99877.75;1722499;83;21113;-58
2022/01/03 04:59:27;;;;;;;;;;;;;;;3.72;41.92;99881.02;1723054;83;20674;-59
2022/01/03 05:01:54;;;;;;;;;;;;;;;3.75;41.87;99873.80;1722961;82;20158;-66
2022/01/03 05:04:22;;;;;;;;;;;;;;;3.78;41.98;99871.37;1717486;82;20166;-61
2022/01/03 05:06:48;;;;;;;;;;;;;;;3.86;41.83;99867.12;1718960;82;20084;-61
2022/01/03 05:09:17;;;;;;;;;;;;;;;4.21;41.53;99862.05;1717541;82;21151;-60
2022/01/03 05:11:46;;;;;;;;;;;;;;;4.36;41.25;99860.05;1712267;82;20539;-60
2022/01/03 05:14:12;;;;;;;;;;;;;;;4.59;40.89;99854.36;1717654;82;20527;-60
2022/01/03 05:16:40;;;;;;;;;;;;;;;4.31;41.10;99849.83;1720011;82;20739;-61
2022/01/03 05:19:07;;;;;;;;;;;;;;;4.36;41.15;99841.17;1717686;82;20107;-60
2022/01/03 05:21:38;;;;;;;;;;;;;;;4.25;41.48;99837.56;1716249;82;21811;-60
2022/01/03 05:24:07;;;;;;;;;;;;;;;4.42;41.25;99834.09;1716345;82;20436;-65
2022/01/03 05:26:34;;;;;;;;;;;;;;;4.50;41.19;99832.03;1717607;82;20193;-59
2022/01/03 05:29:01;;;;;;;;;;;;;;;4.63;40.99;99829.36;1720003;82;20218;-60
2022/01/03 05:31:28;;;;;;;;;;;;;;;4.54;41.25;99834.63;1717878;82;20405;-59
2022/01/03 05:34:00;;;;;;;;;;;;;;;4.54;41.32;99823.82;1719773;82;21162;-59
2022/01/03 05:36:26;;;;;;;;;;;;;;;4.92;40.80;99817.83;1717377;82;20133;-60
2022/01/03 05:38:53;;;;;;;;;;;;;;;4.87;40.72;99806.69;1720553;82;20230;-65
2022/01/03 05:41:19;;;;;;;;;;;;;;;4.64;41.04;99805.16;1729443;81;21364;-59
2022/01/03 05:43:45;;;;;;;;;;;;;;;4.89;40.73;99796.22;1719676;82;20209;-59
2022/01/03 05:46:12;;;;;;;;;;;;;;;5.08;40.49;99793.35;1718807;82;22087;-64
2022/01/03 05:48:41;;;;;;;;;;;;;;;4.92;40.61;99790.72;1713471;82;20769;-58
2022/01/03 05:51:09;;;;;;;;;;;;;;;5.09;40.58;99780.75;1715945;82;20115;-65
2022/01/03 05:53:36;;;;;;;;;;;;;;;4.74;40.94;99781.00;1714316;82;20087;-60
2022/01/03 05:56:03;;;;;;;;;;;;;;;4.81;41.16;99770.34;1715190;82;20503;-65
2022/01/03 05:58:33;;;;;;;;;;;;;;;4.96;41.31;99768.77;1639202;86;20880;-58
2022/01/03 06:01:01;;;;;;;;;;;;;;;5.26;41.00;99757.02;1693913;84;20606;-59
2022/01/03 06:03:33;;;;;;;;;;;;;;;5.13;41.00;99751.53;1693411;84;20365;-59
2022/01/03 06:08:27;;;;;;;;;;;;;;;5.19;41.30;99755.23;1724283;82;20436;-60
2022/01/03 06:10:54;;;;;;;;;;;;;;;5.64;40.92;99749.58;1724412;82;21148;-58
2022/01/03 06:13:24;;;;;;;;;;;;;;;5.51;41.07;99747.50;1723316;82;20424;-61
2022/01/03 06:15:52;;;;;;;;;;;;;;;5.71;41.00;99744.56;1723975;82;20209;-61
2022/01/03 06:18:19;;;;;;;;;;;;;;;5.96;40.68;99738.41;1723596;82;21030;-61
2022/01/03 06:20:49;;;;;;;;;;;;;;;6.86;39.63;99726.37;1724155;82;20103;-60
2022/01/03 06:23:18;;;;;;;;;;;;;;;6.63;39.83;99734.58;1708312;82;21129;-64
2022/01/03 06:25:46;;;;;;;;;;;;;;;6.51;40.28;99732.86;1724213;82;20368;-58
2022/01/03 06:28:14;;;;;;;;;;;;;;;6.20;40.67;99734.13;1723437;82;20143;-59
2022/01/03 06:30:42;;;;;;;;;;;;;;;6.43;40.73;99725.94;1724085;82;20454;-59
2022/01/03 06:33:09;;;;;;;;;;;;;;;6.14;41.26;99712.79;1725265;82;20424;-59
2022/01/03 06:35:36;;;;;;;;;;;;;;;6.00;41.83;99703.47;1723295;82;21122;-60
2022/01/03 06:38:04;;;;;;;;;;;;;;;5.74;42.41;99697.20;1725600;82;20189;-60
2022/01/03 06:40:30;;;;;;;;;;;;;;;5.63;42.74;99688.50;1723659;82;20221;-60
2022/01/03 06:42:58;;;;;;;;;;;;;;;5.80;42.77;99673.77;1724193;82;20115;-60
2022/01/03 06:45:25;;;;;;;;;;;;;;;5.43;43.29;99662.70;1723656;82;20099;-66
2022/01/03 06:47:53;;;;;;;;;;;;;;;5.36;43.58;99656.08;1724340;82;22148;-60
2022/01/03 06:50:20;;;;;;;;;;;;;;;5.35;44.00;99642.84;1723161;82;20919;-61
2022/01/03 06:52:46;;;;;;;;;;;;;;;5.80;43.42;99637.56;1724207;82;20197;-61
2022/01/03 06:55:13;;;;;;;;;;;;;;;5.79;43.50;99630.27;1723772;82;20668;-61
2022/01/03 06:57:41;;;;;;;;;;;;;;;5.95;43.36;99633.33;1723616;82;20159;-62
2022/01/03 07:00:09;;;;;;;;;;;;;;;5.78;43.78;99623.48;1723649;82;22062;-60
2022/01/03 07:02:42;;;;;;;;;;;;;;;5.82;43.75;99626.55;1732304;81;20177;-61
2022/01/03 07:05:09;;;;;;;;;;;;;;;5.42;44.62;99611.50;1735831;82;20161;-60
2022/01/03 07:07:36;;;;;;;;;;;;;;;5.49;44.87;99605.98;1732638;82;20137;-68
2022/01/03 07:10:03;;;;;;;;;;;;;;;5.49;45.11;99599.53;1733392;82;20152;-61
2022/01/03 07:12:31;;;;;;;;;;;;;;;5.43;45.25;99598.89;1732845;82;21380;-62
2022/01/03 07:20:13;;;;;;;;;;;;;;;5.43;45.57;99569.16;1733218;82;20120;-61
2022/01/03 07:22:40;;;;;;;;;;;;;;;5.55;45.45;99561.36;1734342;82;20204;-60
2022/01/03 07:25:08;;;;;;;;;;;;;;;5.89;45.19;99538.26;1733979;82;21268;-63
2022/01/03 07:27:34;;;;;;;;;;;;;;;5.80;45.33;99524.58;1733203;82;20420;-68
2022/01/03 07:30:00;;;;;;;;;;;;;;;5.75;45.23;99515.20;1733602;82;20242;-68
2022/01/03 07:32:27;;;;;;;;;;;;;;;5.82;45.47;99514.05;1733367;82;20258;-60
2022/01/03 07:34:53;;;;;;;;;;;;;;;6.06;45.34;99494.54;1735356;82;20173;-59
2022/01/03 07:37:19;;;;;;;;;;;;;;;6.39;44.87;99489.09;1735912;80;21145;-62
2022/01/03 07:39:45;;;;;;;;;;;;;;;6.43;44.87;99475.31;1739197;80;20432;-68
2022/01/03 07:42:11;;;;;;;;;;;;;;;6.83;44.39;99463.28;1733581;82;20138;-66
2022/01/03 07:44:45;;;;;;;;;;;;;;;6.81;44.42;99454.07;1733917;82;20224;-61
2022/01/03 07:47:11;;;;;;;;;;;;;;;6.60;45.05;99442.33;1671389;84;20223;-61
2022/01/03 07:49:38;;;;;;;;;;;;;;;6.81;45.08;99438.53;1700204;84;21133;-63
2022/01/03 07:52:06;;;;;;;;;;;;;;;6.72;45.29;99431.84;1697899;84;20144;-62
2022/01/03 07:54:33;;;;;;;;;;;;;;;6.95;45.17;99430.45;1700686;82;20181;-65
2022/01/03 07:57:01;;;;;;;;;;;;;;;7.05;45.08;99427.10;1701564;84;20173;-69
2022/01/03 07:59:28;;;;;;;;;;;;;;;6.90;45.40;99423.72;1701026;82;20095;-64
2022/01/03 08:01:54;;;;;;;;;;;;;;;6.78;45.95;99411.22;1697653;84;21179;-75
2022/01/03 08:04:21;;;;;;;;;;;;;;;7.10;45.64;99397.55;1679442;83;20152;-65
2022/01/03 08:06:47;;;;;;;;;;;;;;;6.93;46.08;99386.60;1678920;83;20215;-63
2022/01/03 08:09:16;;;;;;;;;;;;;;;7.10;46.11;99383.30;1679185;83;20092;-65
2022/01/03 08:11:42;;;;;;;;;;;;;;;7.19;46.14;99377.02;1677766;85;20108;-66
2022/01/03 08:14:10;;;;;;;;;;;;;;;7.04;46.47;99361.49;1676326;85;22735;-74
2022/01/03 08:16:38;;;;;;;;;;;;;;;7.27;46.04;99343.23;1688839;83;20171;-67
2022/01/03 08:19:05;;;;;;;;;;;;;;;6.47;47.41;99338.87;1699747;83;20099;-68
2022/01/03 08:21:33;;;;;;;;;;;;;;;6.94;47.15;99327.81;1704640;83;20458;-67
2022/01/03 08:23:59;;;;;;;;;;;;;;;6.74;47.48;99322.37;1700853;83;20244;-78
2022/01/03 08:26:27;;;;;;;;;;;;;;;6.88;47.37;99311.69;1705167;83;21137;-66
2022/01/03 08:28:57;;;;;;;;;;;;;;;6.99;47.40;99299.06;1704111;83;20509;-69
2022/01/03 08:31:24;;;;;;;;;;;;;;;7.27;47.31;99306.11;1713656;83;20093;-70
2022/01/03 08:33:50;;;;;;;;;;;;;;;7.46;47.32;99299.50;1703333;83;20157;-72
2022/01/03 08:36:17;;;;;;;;;;;;;;;7.39;47.55;99281.32;1698700;83;20169;-71
2022/01/03 08:38:44;;;;;;;;;;;;;;;7.43;47.53;99274.77;1695340;83;21163;-67
2022/01/03 08:41:10;;;;;;;;;;;;;;;7.26;47.96;99275.50;1712622;83;20513;-67
2022/01/03 08:43:43;;;;;;;;;;;;;;;7.06;48.67;99255.89;1712876;83;20113;-69
2022/01/03 08:46:09;;;;;;;;;;;;;;;7.10;49.54;99240.77;1699219;83;20083;-69
2022/01/03 08:48:36;;;;;;;;;;;;;;;7.07;50.10;99228.97;1681376;83;20504;-67
2022/01/03 08:51:02;;;;;;;;;;;;;;;7.11;50.71;99219.54;1679393;85;21171;-66
2022/01/03 08:53:29;;;;;;;;;;;;;;;7.54;50.13;99204.75;1677341;84;20132;-64
2022/01/03 08:55:55;;;;;;;;;;;;;;;7.63;50.04;99191.13;1694190;83;20232;-71
2022/01/03 08:58:24;;;;;;;;;;;;;;;7.59;50.72;99182.13;1707335;83;20133;-71
2022/01/03 09:00:50;;;;;;;;;;;;;;;7.66;50.86;99173.90;1675580;83;20207;-66
2022/01/03 09:03:17;;;;;;;;;;;;;;;8.05;50.54;99160.32;1659286;83;21144;-65
2022/01/03 09:05:44;;;;;;;;;;;;;;;8.14;50.25;99144.08;1698416;83;20431;-70
2022/01/03 09:08:16;;;;;;;;;;;;;;;8.37;49.97;99140.70;1667706;85;20206;-70
2022/01/03 09:10:43;;;;;;;;;;;;;;;8.77;49.44;99127.77;1652000;85;20206;-64
2022/01/03 09:13:09;;;;;;;;;;;;;;;8.43;49.92;99128.22;1699750;83;20208;-62
2022/01/03 09:15:44;;;;;;;;;;;;;;;8.56;50.09;99121.45;1702737;83;21204;-66
2022/01/03 09:18:07;;;;;;;;;;;;;;;8.67;49.93;99097.48;1702826;83;20153;-64
2022/01/03 09:20:34;;;;;;;;;;;;;;;8.68;50.12;99105.09;1691757;83;20506;-72
2022/01/03 09:23:08;;;;;;;;;;;;;;;9.03;49.37;99080.70;1688058;83;20208;-65
2022/01/03 09:30:50;;;;;;;;;;;;;;;8.07;52.60;99054.53;1700559;83;20577;-63
2022/01/03 09:33:16;;;;;;;;;;;;;;;7.95;53.96;99072.44;1701491;83;20212;-61
2022/01/03 09:35:43;;;;;;;;;;;;;;;8.05;54.63;99032.65;1703626;83;20160;-70
2022/01/03 09:38:10;;;;;;;;;;;;;;;8.22;54.21;99052.57;1704519;83;20174;-66
2022/01/03 09:40:41;;;;;;;;;;;;;;;8.39;54.48;99039.23;1710100;83;21273;-67
2022/01/03 09:43:08;;;;;;;;;;;;;;;8.88;53.38;99021.94;1693692;83;20680;-67
2022/01/03 09:45:37;;;;;;;;;;;;;;;8.80;54.18;99024.75;1689363;83;20248;-70
2022/01/03 09:48:04;;;;;;;;;;;;;;;9.27;52.94;99017.65;1696556;83;20213;-66
2022/01/03 09:50:32;;;;;;;;;;;;;;;9.34;53.00;99032.73;1686969;83;21286;-68
2022/01/03 09:52:58;;;;;;;;;;;;;;;9.54;52.36;99011.05;1701629;83;22082;-69
2022/01/03 09:55:25;;;;;;;;;;;;;;;8.75;53.99;98999.84;1704312;83;20486;-69
2022/01/03 09:57:51;;;;;;;;;;;;;;;8.01;59.41;99009.39;1701579;83;20137;-70
2022/01/03 10:00:22;;;;;;;;;;;;;;;8.25;61.19;98987.25;1695062;83;20144;-74
2022/01/03 10:02:47;;;;;;;;;;;;;;;7.89;62.53;99001.09;1692741;82;20188;-72
2022/01/03 10:05:13;;;;;;;;;;;;;;;7.39;71.08;98983.67;1703590;83;21164;-71
2022/01/03 10:07:40;;;;;;;;;;;;;;;7.23;71.98;98982.19;1702196;81;20427;-72
2022/01/03 10:10:11;;;;;;;;;;;;;;;6.91;82.52;98977.95;1696415;83;20224;-79
2022/01/03 10:12:37;;;;;;;;;;;;;;;6.84;86.21;98983.58;1699798;83;20154;-79
2022/01/03 10:15:06;;;;;;;;;;;;;;;7.13;86.96;98954.55;1704285;83;20210;-70
2022/01/03 10:17:38;;;;;;;;;;;;;;;7.29;87.00;98963.28;1665295;83;21150;-72
2022/01/03 10:20:06;;;;;;;;;;;;;;;7.45;87.54;98954.37;1720707;81;20112;-69
2022/01/03 10:22:34;;;;;;;;;;;;;;;7.27;89.97;98951.00;1717646;81;20414;-76
2022/01/03 10:25:03;;;;;;;;;;;;;;;7.13;93.30;98944.19;1705173;82;20223;-70
2022/01/03 10:27:50;;;;;;;;;;;;;;;6.67;100.00;98936.97;1714939;83;20481;-69
2022/01/03 10:30:38;;;;;;;;;;;;;;;7.34;100.00;98944.05;1715644;83;22152;-73
2022/01/03 10:33:06;;;;;;;;;;;;;;;7.35;99.21;98928.00;1708107;83;20114;-68
2022/01/03 10:35:39;;;;;;;;;;;;;;;7.57;97.83;98922.98;1718064;81;20105;-67
2022/01/03 10:38:06;;;;;;;;;;;;;;;7.25;99.04;98923.20;1696304;83;20131;-73
2022/01/03 10:40:32;;;;;;;;;;;;;;;7.35;100.00;98916.33;1686145;83;20389;-68
2022/01/03 10:43:19;;;;;;;;;;;;;;;7.86;97.74;98908.88;1686837;83;22087;-69
2022/01/03 10:45:50;;;;;;;;;;;;;;;8.03;98.45;98894.99;1686548;83;20301;-73
2022/01/03 10:48:29;;;;;;;;;;;;;;;8.02;99.13;98893.41;1687557;83;20391;-69
2022/01/03 10:50:58;;;;;;;;;;;;;;;7.82;99.48;98870.56;1685523;83;20344;-68
2022/01/03 10:53:36;;;;;;;;;;;;;;;8.12;100.00;98865.27;1684007;83;20180;-71
2022/01/03 10:56:23;;;;;;;;;;;;;;;8.08;100.00;98854.20;1685915;83;21119;-67
2022/01/03 10:58:51;;;;;;;;;;;;;;;8.08;100.00;98850.30;1660639;84;37605;-73
2022/01/03 11:01:20;;;;;;;;;;;;;;;8.51;100.00;98861.83;1706655;82;20362;-68
2022/01/03 11:03:47;;;;;;;;;;;;;;;8.87;95.01;98851.95;1716658;82;20288;-69
2022/01/03 11:06:23;;;;;;;;;;;;;;;8.47;99.17;98846.86;1715967;82;20195;-67
2022/01/03 11:11:35;;;;;;;;;;;;;;;8.57;100.00;98837.36;1716264;82;20128;-71
2022/01/03 11:14:03;;;;;;;;;;;;;;;8.64;100.00;98829.05;1715031;82;20107;-67
2022/01/03 11:16:32;;;;;;;;;;;;;;;8.91;100.00;98811.55;1712809;82;20284;-69
2022/01/03 11:18:59;;;;;;;;;;;;;;;9.04;99.78;98814.56;1720480;82;20218;-67
2022/01/03 11:21:26;;;;;;;;;;;;;;;9.20;97.60;98801.07;1714746;82;21165;-65
2022/01/03 11:24:09;;;;;;;;;;;;;;;9.39;96.64;98804.05;1715053;82;21027;-66
2022/01/03 11:26:47;;;;;;;;;;;;;;;9.29;97.05;98799.03;1703159;82;20174;-65
2022/01/03 11:29:10;;;;;;;;;;;;;;;8.80;100.00;98791.41;1714993;81;20424;-69
2022/01/03 11:31:38;;;;;;;;;;;;;;;8.58;100.00;98803.88;1717109;82;21090;-69
2022/01/03 11:34:09;;;;;;;;;;;;;;;7.64;100.00;98800.61;1716151;82;21227;-71
2022/01/03 11:36:38;;;;;;;;;;;;;;;8.28;100.00;98800.44;1716753;82;20157;-64
2022/01/03 11:39:08;;;;;;;;;;;;;;;8.58;100.00;98801.28;1715213;82;20433;-73
2022/01/03 11:41:39;;;;;;;;;;;;;;;8.45;100.00;98797.73;1717941;81;20246;-63
2022/01/03 11:44:07;;;;;;;;;;;;;;;8.36;100.00;98795.02;1713826;82;20209;-74
2022/01/03 11:46:33;;;;;;;;;;;;;;;7.43;100.00;98783.47;1714702;82;21169;-61
2022/01/03 11:49:02;;;;;;;;;;;;;;;7.69;100.00;98776.19;1717387;82;20150;-69
2022/01/03 11:51:32;;;;;;;;;;;;;;;7.69;100.00;98776.66;1712874;82;20237;-61
2022/01/03 11:54:00;;;;;;;;;;;;;;;8.51;100.00;98764.44;1714776;82;20166;-68
2022/01/03 11:56:29;;;;;;;;;;;;;;;7.49;100.00;98754.12;1711705;82;20185;-62
2022/01/03 12:04:27;;;;;;;;;;;;;;;7.60;100.00;98747.55;1716910;82;20269;-75
2022/01/03 12:07:10;;;;;;;;;;;;;;;7.01;100.00;98741.36;1725544;82;20157;-62
2022/01/03 12:09:39;;;;;;;;;;;;;;;7.08;100.00;98741.34;1718863;82;20139;-74
2022/01/03 12:12:12;;;;;;;;;;;;;;;7.12;100.00;98737.86;1722266;82;21159;-68
2022/01/03 12:14:43;;;;;;;;;;;;;;;7.00;100.00;98725.98;1717882;82;20161;-63
2022/01/03 12:17:12;;;;;;;;;;;;;;;6.66;100.00;98719.94;1705112;82;20217;-63
2022/01/03 12:19:42;;;;;;;;;;;;;;;6.77;100.00;98712.10;1724080;82;20146;-65
2022/01/03 12:22:22;;;;;;;;;;;;;;;6.80;100.00;98710.42;1724764;81;20264;-73
2022/01/03 12:24:55;;;;;;;;;;;;;;;6.90;100.00;98706.96;1687364;82;22255;-64
2022/01/03 12:27:23;;;;;;;;;;;;;;;7.11;100.00;98694.81;1720786;82;20107;-77
2022/01/03 12:30:02;;;;;;;;;;;;;;;7.47;100.00;98687.94;1721641;81;20290;-70
2022/01/03 12:32:41;;;;;;;;;;;;;;;7.38;100.00;98686.03;1724439;81;20130;-67
2022/01/03 12:35:17;;;;;;;;;;;;;;;7.34;100.00;98677.56;1724400;81;20227;-77
2022/01/03 12:37:48;;;;;;;;;;;;;;;7.42;100.00;98665.19;1727449;81;21128;-67
2022/01/03 12:40:18;;;;;;;;;;;;;;;7.55;100.00;98674.77;1727691;82;20166;-69
2022/01/03 12:42:54;;;;;;;;;;;;;;;7.75;100.00;98675.52;1722665;82;20468;-68
2022/01/03 12:45:33;;;;;;;;;;;;;;;7.78;100.00;98673.02;1722966;82;20380;-78
2022/01/03 12:48:18;;;;;;;;;;;;;;;7.85;100.00;98663.42;1722396;82;20167;-70
2022/01/03 12:50:55;;;;;;;;;;;;;;;7.74;100.00;98662.75;1720976;81;21208;-77
2022/01/03 12:53:31;;;;;;;;;;;;;;;8.33;100.00;98654.44;1722988;82;20410;-73
2022/01/03 12:56:10;;;;;;;;;;;;;;;8.58;100.00;98648.05;1723828;82;20607;-73
2022/01/03 12:58:43;;;;;;;;;;;;;;;8.75;100.00;98653.02;1723289;82;20170;-70
2022/01/03 13:01:16;;;;;;;;;;;;;;;8.18;100.00;98645.14;1725152;82;20440;-69
2022/01/03 13:03:52;;;;;;;;;;;;;;;8.19;100.00;98643.34;1722534;81;21785;-69
2022/01/03 13:06:24;;;;;;;;;;;;;;;8.50;100.00;98634.30;1720470;81;20083;-68
2022/01/03 13:08:57;;;;;;;;;;;;;;;8.53;100.00;98642.98;1720538;82;20226;-65
2022/01/03 13:11:44;;;;;;;;;;;;;;;8.18;100.00;98633.94;1716959;82;20124;-71
2022/01/03 13:14:18;;;;;;;;;;;;;;;8.32;100.00;98637.28;1714359;82;20511;-65
2022/01/03 13:16:48;;;;;;;;;;;;;;;8.07;100.00;98631.99;1719097;81;21150;-67
2022/01/03 13:19:25;;;;;;;;;;;;;;;8.52;100.00;98617.20;1715331;82;20194;-65
2022/01/03 13:21:54;;;;;;;;;;;;;;;8.70;100.00;98622.98;1714646;82;20150;-66
2022/01/03 13:24:24;;;;;;;;;;;;;;;8.73;100.00;98618.17;1716134;82;20162;-66
2022/01/03 13:27:06;;;;;;;;;;;;;;;8.65;100.00;98603.35;1687256;84;20204;-67